Rechercher aéroport 
image banner adimage banner adimage banner ad
image banner ad

PN07 - Cranes-N-Lifts Inc

Situé à White Haven, United States

ICAO - PN07, IATA -

Données fournies par Airmate  

Information générale

Coordonnées: N41°1'51" W75°46'43"
Élévation : 1360 feet MSL.
Variation magnétique : -12° East
Voir autres Aéroports à Pennsylvania

Données opérationnelles

Special qualification required
Heure actuelle UTC:
Heure actuelle locale:
Météo à : KHZL - Hazleton Rgnl ( 19 km )
METAR: KHZL 132055Z AUTO 17003KT 10SM BKN015 OVC020 22/17 A2994 RMK AO2
Voir NOTAMs / SUP AIP / TFR affectant cet aéroport [VIEW]
Fréquences de communication: [VIEW]

Pistes:

Coordonnées de l'aéroport

Adresse: White Haven United States

Vue satellite de PN07